Forest Gate, United Kingdom
Current Conditions -  °F | °C
As of 4:50 AM on Friday 21 Nov 2014 (Local Time) from EGLC Reporting Station
Haze Haze  
Wind Chill: 41°   Ceiling: 1600
Heat Index: 45°   Visibility: 2.1mi
Dew Point: 43°   Wind: 6mph
Humidity: 93%   Direction: 100°E
Pressure: 30.15"   Gusts: NA
Location:  51.55°N, 0.02°E
Report Text: EGLC 210450Z AUTO 10005KT 3400 BR BKN016/// 07/06 Q1021
Loading
Personal Weather Stations






























Interactive Weather Map New forecast layout! Learn more

10-Day Weather Forecast

Advertisements
Track Severe Weather on mobile